createdAt,value
2022-09-18T00:00:06.157Z,89.85
2022-09-18T00:01:01.417Z,89.87
2022-09-18T00:01:57.224Z,89.89
2022-09-18T00:02:52.302Z,89.88
2022-09-18T00:03:47.410Z,89.89
2022-09-18T00:04:43.479Z,89.92
2022-09-18T00:05:38.582Z,89.95
2022-09-18T00:06:34.372Z,90.01
2022-09-18T00:07:29.418Z,90.02
2022-09-18T00:08:24.813Z,90.06
2022-09-18T00:09:20.296Z,89.95
2022-09-18T00:10:15.443Z,89.92
2022-09-18T00:11:10.507Z,89.84
2022-09-18T00:12:06.867Z,89.82
2022-09-18T00:13:02.059Z,89.87
2022-09-18T00:13:57.872Z,89.97
2022-09-18T00:14:52.998Z,90.08
2022-09-18T00:15:48.180Z,90.22
2022-09-18T00:16:43.268Z,90.22
2022-09-18T00:17:39.707Z,90.05
2022-09-18T00:18:34.917Z,89.94
2022-09-18T00:19:30.201Z,89.98
2022-09-18T00:20:25.975Z,89.95
2022-09-18T00:21:21.204Z,89.91
2022-09-18T00:22:16.396Z,89.93
2022-09-18T00:23:12.575Z,89.95
2022-09-18T00:24:08.084Z,90.02
2022-09-18T00:25:03.590Z,90.04
2022-09-18T00:25:58.862Z,90.13
2022-09-18T00:26:54.062Z,90.19
2022-09-18T00:27:49.970Z,90.02
2022-09-18T00:28:45.135Z,89.85
2022-09-18T00:29:40.894Z,89.70
2022-09-18T00:30:36.097Z,89.68
2022-09-18T00:31:31.382Z,89.69
2022-09-18T00:32:27.168Z,89.75
2022-09-18T00:33:22.361Z,89.90
2022-09-18T00:34:17.484Z,89.60
2022-09-18T00:35:12.681Z,89.54
2022-09-18T00:36:07.917Z,89.43
2022-09-18T00:37:02.926Z,89.41
2022-09-18T00:37:58.173Z,89.36
2022-09-18T00:38:54.014Z,89.39
2022-09-18T00:39:48.983Z,89.45
2022-09-18T00:40:44.093Z,89.65
2022-09-18T00:41:39.996Z,89.73
2022-09-18T00:42:35.331Z,89.70
2022-09-18T00:43:30.447Z,89.96
2022-09-18T00:44:25.665Z,89.64
2022-09-18T00:45:20.638Z,89.48
2022-09-18T00:46:15.709Z,89.32
2022-09-18T00:47:10.765Z,89.27
2022-09-18T00:48:05.817Z,89.14
2022-09-18T00:49:00.917Z,89.25
2022-09-18T00:49:56.127Z,88.97
2022-09-18T00:50:51.102Z,89.00
2022-09-18T00:51:46.202Z,89.13
2022-09-18T00:52:41.140Z,89.16
2022-09-18T00:53:36.188Z,89.25
2022-09-18T00:54:31.342Z,88.95
2022-09-18T00:55:26.396Z,88.96
2022-09-18T00:56:21.547Z,88.97
2022-09-18T00:57:20.661Z,89.03
2022-09-18T00:58:15.782Z,89.19
2022-09-18T00:59:10.830Z,89.36
2022-09-18T01:00:05.935Z,89.46
2022-09-18T01:01:01.096Z,89.43
2022-09-18T01:01:56.157Z,89.42
2022-09-18T01:02:51.077Z,89.25
2022-09-18T01:03:46.119Z,89.05
2022-09-18T01:04:41.272Z,88.97
2022-09-18T01:05:36.344Z,88.92
2022-09-18T01:06:31.468Z,88.97
2022-09-18T01:07:26.437Z,88.89
2022-09-18T01:08:21.478Z,88.99
2022-09-18T01:09:27.990Z,89.11
2022-09-18T01:10:12.921Z,89.28
2022-09-18T01:11:06.885Z,89.27
2022-09-18T01:12:01.956Z,89.17
2022-09-18T01:12:57.148Z,89.14
2022-09-18T01:13:55.772Z,88.84
2022-09-18T01:14:50.833Z,88.67
2022-09-18T01:15:46.188Z,88.61
2022-09-18T01:16:41.243Z,88.64
2022-09-18T01:17:36.361Z,88.93
2022-09-18T01:18:31.413Z,88.78
2022-09-18T01:19:26.601Z,88.59
2022-09-18T01:20:21.653Z,88.69
2022-09-18T01:21:16.772Z,88.86
2022-09-18T01:22:11.890Z,89.07
2022-09-18T01:23:06.935Z,88.92
2022-09-18T01:24:02.238Z,88.94
2022-09-18T01:24:57.170Z,88.88
2022-09-18T01:25:52.210Z,88.79
2022-09-18T01:26:47.320Z,88.72
2022-09-18T01:27:42.388Z,88.96
2022-09-18T01:28:37.583Z,88.96
2022-09-18T01:29:32.692Z,88.77
2022-09-18T01:30:27.805Z,88.75
2022-09-18T01:31:22.944Z,88.92
2022-09-18T01:32:17.986Z,88.79
2022-09-18T01:33:13.040Z,88.68
2022-09-18T01:34:08.146Z,88.69
2022-09-18T01:35:09.872Z,88.92
2022-09-18T01:35:59.175Z,88.96
2022-09-18T01:36:53.328Z,88.86
2022-09-18T01:37:48.377Z,88.55
2022-09-18T01:38:43.501Z,88.35
2022-09-18T01:39:38.583Z,88.79
2022-09-18T01:40:33.693Z,88.60
2022-09-18T01:41:28.695Z,88.39
2022-09-18T01:42:23.751Z,88.32
2022-09-18T01:43:18.912Z,88.21
2022-09-18T01:44:13.977Z,88.09
2022-09-18T01:45:09.465Z,88.04
2022-09-18T01:46:04.642Z,87.85
2022-09-18T01:46:59.675Z,87.75
2022-09-18T01:47:56.091Z,87.85
2022-09-18T01:48:51.267Z,87.72
2022-09-18T01:49:46.990Z,87.74
2022-09-18T01:50:42.203Z,87.72
2022-09-18T01:51:37.336Z,87.75
2022-09-18T01:52:33.229Z,87.77
2022-09-18T01:53:28.448Z,87.78
2022-09-18T01:54:24.197Z,87.89
2022-09-18T01:55:19.393Z,87.60
2022-09-18T01:56:14.661Z,87.30
2022-09-18T01:57:10.562Z,87.34
2022-09-18T01:58:05.671Z,87.28
2022-09-18T01:59:00.876Z,87.49
2022-09-18T01:59:57.219Z,87.52
2022-09-18T02:00:52.372Z,87.57
2022-09-18T02:01:48.392Z,87.64
2022-09-18T02:02:43.446Z,87.61
2022-09-18T02:03:38.585Z,87.54
2022-09-18T02:04:34.385Z,87.61
2022-09-18T02:05:29.630Z,87.53
2022-09-18T02:06:25.533Z,87.68
2022-09-18T02:07:20.613Z,87.50
2022-09-18T02:08:15.993Z,87.68
2022-09-18T02:09:11.769Z,87.43
2022-09-18T02:10:07.122Z,87.18
2022-09-18T02:11:02.275Z,87.12
2022-09-18T02:11:58.631Z,87.38
2022-09-18T02:12:53.738Z,87.12
2022-09-18T02:13:49.539Z,86.99
2022-09-18T02:14:44.614Z,86.94
2022-09-18T02:15:40.075Z,86.67
2022-09-18T02:16:35.647Z,86.66
2022-09-18T02:17:30.852Z,86.64
2022-09-18T02:18:26.684Z,86.64
2022-09-18T02:19:21.753Z,86.74
2022-09-18T02:20:17.124Z,86.89
2022-09-18T02:21:12.784Z,86.89
2022-09-18T02:22:07.997Z,86.75
2022-09-18T02:23:03.223Z,86.84
2022-09-18T02:23:59.407Z,86.82
2022-09-18T02:24:54.542Z,86.93
2022-09-18T02:25:50.309Z,87.25
2022-09-18T02:26:45.521Z,87.02
2022-09-18T02:27:40.628Z,87.03
2022-09-18T02:28:36.423Z,87.05
2022-09-18T02:29:31.568Z,86.90
2022-09-18T02:30:27.366Z,87.06
2022-09-18T02:31:22.560Z,86.91
2022-09-18T02:32:17.745Z,86.86
2022-09-18T02:33:13.524Z,86.80
2022-09-18T02:34:08.756Z,86.89
2022-09-18T02:35:03.937Z,86.69
2022-09-18T02:36:00.542Z,86.92
2022-09-18T02:36:55.495Z,87.17
2022-09-18T02:37:51.423Z,86.90
2022-09-18T02:38:46.523Z,86.83
2022-09-18T02:39:41.620Z,86.53
2022-09-18T02:40:37.424Z,86.69
2022-09-18T02:41:32.589Z,86.70
2022-09-18T02:42:28.512Z,86.50
2022-09-18T02:43:23.613Z,86.35
2022-09-18T02:44:18.954Z,86.38
2022-09-18T02:45:14.767Z,86.09
2022-09-18T02:46:10.109Z,86.08
2022-09-18T02:47:05.229Z,86.14
2022-09-18T02:48:00.309Z,86.04
2022-09-18T02:48:55.396Z,85.68
2022-09-18T02:49:51.185Z,85.88
2022-09-18T02:50:46.440Z,86.00
2022-09-18T02:51:42.356Z,86.06
2022-09-18T02:52:37.430Z,85.82
2022-09-18T02:53:32.816Z,85.87
2022-09-18T02:54:28.615Z,86.02
2022-09-18T02:55:23.843Z,85.94
2022-09-18T02:56:19.183Z,85.67
2022-09-18T02:57:15.402Z,85.68
2022-09-18T02:58:10.464Z,85.88
2022-09-18T02:59:06.270Z,85.94
2022-09-18T03:00:01.455Z,85.96
2022-09-18T03:00:56.669Z,86.04
2022-09-18T03:01:52.491Z,86.18
2022-09-18T03:02:47.630Z,86.41
2022-09-18T03:03:42.676Z,86.64
2022-09-18T03:04:37.879Z,86.67
2022-09-18T03:05:33.324Z,86.89
2022-09-18T03:06:28.579Z,86.96
2022-09-18T03:07:23.528Z,87.00
2022-09-18T03:08:18.665Z,87.07
2022-09-18T03:09:13.726Z,87.10
2022-09-18T03:10:08.833Z,87.18
2022-09-18T03:11:03.902Z,87.44
2022-09-18T03:11:59.018Z,87.30
2022-09-18T03:12:54.103Z,86.92
2022-09-18T03:13:49.199Z,86.79
2022-09-18T03:14:44.271Z,86.92
2022-09-18T03:15:39.377Z,87.15
2022-09-18T03:16:34.457Z,87.14
2022-09-18T03:17:29.448Z,87.21
2022-09-18T03:18:24.516Z,87.47
2022-09-18T03:19:19.603Z,87.73
2022-09-18T03:20:14.677Z,87.41
2022-09-18T03:21:09.793Z,87.32
2022-09-18T03:22:04.870Z,87.20
2022-09-18T03:22:59.977Z,87.33
2022-09-18T03:23:55.072Z,87.41
2022-09-18T03:24:50.186Z,87.51
2022-09-18T03:25:45.257Z,87.35
2022-09-18T03:26:40.465Z,87.36
2022-09-18T03:27:35.374Z,87.26
2022-09-18T03:28:30.464Z,87.17
2022-09-18T03:29:25.538Z,87.27
2022-09-18T03:30:20.579Z,87.62
2022-09-18T03:31:15.776Z,87.32
2022-09-18T03:32:10.803Z,87.25
2022-09-18T03:33:05.851Z,87.43
2022-09-18T03:34:00.907Z,87.31
2022-09-18T03:34:59.147Z,87.25
2022-09-18T03:35:54.256Z,87.20
2022-09-18T03:36:49.247Z,87.52
2022-09-18T03:37:44.341Z,87.66
2022-09-18T03:38:39.443Z,87.59
2022-09-18T03:39:34.567Z,87.58
2022-09-18T03:40:29.550Z,87.54
2022-09-18T03:41:24.859Z,87.43
2022-09-18T03:42:19.714Z,87.43
2022-09-18T03:43:14.805Z,87.55
2022-09-18T03:44:09.903Z,87.67
2022-09-18T03:45:05.011Z,87.86
2022-09-18T03:46:00.109Z,87.92
2022-09-18T03:46:55.254Z,88.01
2022-09-18T03:47:50.238Z,88.05
2022-09-18T03:48:46.011Z,88.13
2022-09-18T03:49:41.131Z,88.32
2022-09-18T03:50:36.913Z,88.06
2022-09-18T03:51:32.222Z,88.16
2022-09-18T03:52:27.361Z,88.25
2022-09-18T03:53:23.140Z,88.49
2022-09-18T03:54:18.536Z,88.44
2022-09-18T03:55:13.721Z,88.46
2022-09-18T03:56:10.263Z,88.61
2022-09-18T03:57:05.363Z,88.75
2022-09-18T03:58:01.127Z,88.69
2022-09-18T03:58:56.306Z,88.68
2022-09-18T03:59:51.440Z,88.71
2022-09-18T04:00:47.208Z,89.00
2022-09-18T04:01:42.640Z,89.03
2022-09-18T04:02:38.384Z,89.06
2022-09-18T04:03:33.476Z,89.07
2022-09-18T04:04:28.731Z,89.19
2022-09-18T04:05:24.522Z,89.24
2022-09-18T04:06:19.750Z,89.37
2022-09-18T04:07:14.815Z,89.38
2022-09-18T04:08:11.298Z,89.23
2022-09-18T04:09:06.360Z,89.19
2022-09-18T04:10:02.139Z,89.25
2022-09-18T04:10:57.354Z,89.08
2022-09-18T04:11:52.412Z,89.13
2022-09-18T04:12:48.306Z,89.30
2022-09-18T04:13:43.693Z,89.41
2022-09-18T04:14:39.608Z,89.25
2022-09-18T04:15:34.687Z,89.26
2022-09-18T04:16:30.100Z,89.35
2022-09-18T04:17:25.869Z,89.40
2022-09-18T04:18:21.097Z,89.32
2022-09-18T04:19:16.439Z,89.41
2022-09-18T04:20:12.729Z,89.46
2022-09-18T04:21:07.822Z,89.66
2022-09-18T04:22:03.618Z,89.67
2022-09-18T04:22:59.018Z,89.65
2022-09-18T04:23:54.618Z,89.75
2022-09-18T04:24:50.123Z,89.86
2022-09-18T04:25:45.196Z,89.85
2022-09-18T04:26:41.120Z,89.84
2022-09-18T04:27:36.321Z,90.02
2022-09-18T04:28:31.677Z,90.04
2022-09-18T04:29:27.391Z,90.00
2022-09-18T04:30:22.492Z,90.04
2022-09-18T04:31:17.659Z,90.12
2022-09-18T04:32:13.965Z,90.29
2022-09-18T04:33:09.214Z,90.41
2022-09-18T04:34:05.090Z,90.56
2022-09-18T04:35:00.153Z,90.64
2022-09-18T04:35:55.274Z,90.78
2022-09-18T04:36:50.465Z,90.80
2022-09-18T04:37:47.173Z,90.84
2022-09-18T04:38:42.387Z,90.92
2022-09-18T04:39:37.585Z,91.10
2022-09-18T04:40:33.426Z,91.28
2022-09-18T04:41:28.492Z,91.23
2022-09-18T04:42:23.952Z,91.10
2022-09-18T04:43:20.029Z,91.11
2022-09-18T04:44:15.032Z,91.20
2022-09-18T04:45:11.292Z,91.18
2022-09-18T04:46:06.199Z,91.12
2022-09-18T04:47:01.583Z,91.29
2022-09-18T04:47:57.289Z,91.50
2022-09-18T04:48:52.747Z,91.53
2022-09-18T04:49:48.334Z,91.50
2022-09-18T04:50:43.594Z,91.61
2022-09-18T04:51:39.020Z,91.69
2022-09-18T04:52:34.913Z,91.81
2022-09-18T04:53:29.882Z,91.97
2022-09-18T04:54:25.117Z,92.10
2022-09-18T04:55:20.168Z,92.05
2022-09-18T04:56:15.641Z,92.03
2022-09-18T04:57:10.615Z,91.96
2022-09-18T04:58:06.044Z,91.93
2022-09-18T04:59:01.585Z,92.06
2022-09-18T04:59:56.968Z,92.17
2022-09-18T05:00:52.143Z,92.06
2022-09-18T05:01:48.396Z,91.99
2022-09-18T05:02:43.163Z,91.89
2022-09-18T05:03:38.489Z,91.78
2022-09-18T05:04:33.816Z,91.69
2022-09-18T05:05:28.881Z,91.84
2022-09-18T05:06:23.953Z,91.81
2022-09-18T05:07:19.027Z,91.82
2022-09-18T05:08:14.060Z,91.86
2022-09-18T05:09:09.149Z,91.90
2022-09-18T05:10:04.173Z,91.91
2022-09-18T05:10:59.392Z,91.94
2022-09-18T05:11:54.581Z,91.93
2022-09-18T05:12:49.663Z,92.00
2022-09-18T05:13:44.744Z,92.01
2022-09-18T05:14:39.845Z,92.02
2022-09-18T05:15:34.962Z,92.18
2022-09-18T05:16:30.075Z,92.12
2022-09-18T05:17:27.745Z,91.94
2022-09-18T05:18:22.848Z,91.86
2022-09-18T05:19:17.835Z,91.68
2022-09-18T05:20:12.883Z,91.55
2022-09-18T05:21:08.128Z,91.55
2022-09-18T05:22:03.333Z,91.42
2022-09-18T05:22:58.548Z,91.35
2022-09-18T05:23:53.793Z,91.36
2022-09-18T05:24:48.930Z,91.35
2022-09-18T05:25:44.029Z,91.30
2022-09-18T05:26:39.136Z,91.24
2022-09-18T05:27:34.243Z,91.31
2022-09-18T05:28:29.348Z,91.28
2022-09-18T05:29:24.414Z,91.33
2022-09-18T05:30:19.492Z,91.49
2022-09-18T05:31:14.616Z,91.69
2022-09-18T05:32:09.710Z,91.70
2022-09-18T05:33:04.788Z,91.49
2022-09-18T05:34:02.160Z,91.36
2022-09-18T05:34:57.244Z,91.47
2022-09-18T05:35:52.340Z,91.39
2022-09-18T05:36:47.578Z,91.28
2022-09-18T05:37:42.560Z,91.31
2022-09-18T05:38:37.670Z,91.28
2022-09-18T05:39:32.758Z,91.26
2022-09-18T05:40:27.954Z,91.30
2022-09-18T05:41:22.935Z,91.35
2022-09-18T05:42:18.042Z,91.41
2022-09-18T05:43:13.115Z,91.30
2022-09-18T05:44:08.250Z,91.17
2022-09-18T05:45:03.337Z,91.19
2022-09-18T05:45:58.345Z,91.16
2022-09-18T05:46:53.394Z,91.17
2022-09-18T05:47:49.355Z,91.19
2022-09-18T05:48:44.524Z,91.19
2022-09-18T05:49:39.916Z,91.25
2022-09-18T05:50:35.213Z,91.06
2022-09-18T05:51:30.368Z,91.06
2022-09-18T05:52:25.645Z,91.08
2022-09-18T05:53:21.080Z,91.03
2022-09-18T05:54:16.228Z,91.04
2022-09-18T05:55:11.637Z,91.06
2022-09-18T05:56:06.887Z,91.01
2022-09-18T05:57:01.971Z,91.02
2022-09-18T05:57:57.376Z,91.04
2022-09-18T05:58:52.716Z,91.03
2022-09-18T05:59:47.722Z,91.03
2022-09-18T06:00:42.731Z,90.96
2022-09-18T06:01:37.783Z,90.90
2022-09-18T06:02:32.760Z,90.77
2022-09-18T06:03:27.795Z,90.75
2022-09-18T06:04:22.795Z,90.65
2022-09-18T06:05:17.811Z,90.60
2022-09-18T06:06:12.827Z,90.75
2022-09-18T06:07:07.847Z,90.59
2022-09-18T06:08:03.086Z,90.17
2022-09-18T06:08:58.280Z,90.01
2022-09-18T06:09:53.313Z,90.07
2022-09-18T06:10:48.365Z,90.14
2022-09-18T06:11:43.374Z,90.09
2022-09-18T06:12:38.374Z,90.11
2022-09-18T06:13:33.425Z,90.19
2022-09-18T06:14:28.425Z,90.12
2022-09-18T06:15:23.475Z,90.13
2022-09-18T06:16:18.560Z,89.94
2022-09-18T06:17:13.555Z,89.80
2022-09-18T06:18:08.602Z,89.82
2022-09-18T06:19:03.828Z,89.85
2022-09-18T06:19:58.692Z,89.93
2022-09-18T06:20:53.744Z,89.92
2022-09-18T06:21:48.950Z,89.86
2022-09-18T06:22:44.864Z,89.80
2022-09-18T06:23:40.205Z,89.77
2022-09-18T06:24:35.551Z,89.73
2022-09-18T06:25:30.900Z,89.77
2022-09-18T06:26:26.248Z,89.91
2022-09-18T06:27:21.678Z,89.91
2022-09-18T06:28:17.003Z,89.94
2022-09-18T06:29:12.213Z,89.99
2022-09-18T06:30:07.581Z,90.02
2022-09-18T06:31:03.039Z,89.87
2022-09-18T06:31:58.268Z,89.79
2022-09-18T06:32:53.728Z,89.79
2022-09-18T06:33:49.101Z,89.89
2022-09-18T06:34:44.208Z,90.04
2022-09-18T06:35:39.662Z,89.95
2022-09-18T06:36:34.832Z,89.99
2022-09-18T06:37:30.299Z,89.93
2022-09-18T06:38:25.558Z,89.92
2022-09-18T06:39:20.935Z,89.90
2022-09-18T06:40:16.372Z,89.88
2022-09-18T06:41:11.647Z,89.92
2022-09-18T06:42:08.345Z,90.06
2022-09-18T06:43:03.684Z,90.11
2022-09-18T06:43:59.171Z,90.09
2022-09-18T06:44:54.444Z,90.19
2022-09-18T06:45:50.216Z,90.35
2022-09-18T06:46:45.598Z,90.48
2022-09-18T06:47:41.593Z,90.33
2022-09-18T06:48:36.813Z,90.24
2022-09-18T06:49:32.123Z,90.21
2022-09-18T06:50:27.430Z,90.14
2022-09-18T06:51:22.756Z,90.02
2022-09-18T06:52:17.815Z,89.96
2022-09-18T06:53:13.070Z,89.97
2022-09-18T06:54:08.124Z,90.03
2022-09-18T06:55:03.211Z,90.08
2022-09-18T06:55:58.283Z,90.10
2022-09-18T06:56:53.360Z,90.05
2022-09-18T06:57:48.359Z,90.08
2022-09-18T06:58:43.837Z,90.22
2022-09-18T06:59:38.899Z,90.38
2022-09-18T07:00:34.022Z,90.54
2022-09-18T07:01:29.176Z,90.68
2022-09-18T07:02:24.138Z,90.79
2022-09-18T07:03:19.190Z,90.39
2022-09-18T07:04:14.253Z,90.18
2022-09-18T07:05:09.325Z,90.09
2022-09-18T07:06:04.352Z,90.19
2022-09-18T07:06:59.525Z,90.24
2022-09-18T07:07:54.823Z,90.14
2022-09-18T07:08:49.880Z,90.25
2022-09-18T07:09:45.123Z,89.89
2022-09-18T07:10:40.185Z,89.91
2022-09-18T07:11:35.241Z,89.90
2022-09-18T07:12:30.361Z,89.89
2022-09-18T07:13:25.569Z,90.06
2022-09-18T07:14:20.915Z,90.02
2022-09-18T07:15:16.300Z,90.07
2022-09-18T07:16:11.838Z,89.95
2022-09-18T07:17:07.077Z,90.00
2022-09-18T07:18:02.310Z,90.11
2022-09-18T07:18:57.644Z,90.13
2022-09-18T07:19:53.005Z,90.11
2022-09-18T07:20:48.502Z,90.14
2022-09-18T07:21:43.674Z,90.18
2022-09-18T07:22:40.212Z,90.20
2022-09-18T07:23:34.466Z,90.11
2022-09-18T07:24:30.109Z,90.04
2022-09-18T07:25:25.335Z,90.01
2022-09-18T07:26:20.666Z,89.90
2022-09-18T07:27:16.139Z,89.99
2022-09-18T07:28:11.337Z,90.12
2022-09-18T07:29:09.979Z,90.25
2022-09-18T07:30:02.150Z,90.29
2022-09-18T07:30:57.531Z,90.27
2022-09-18T07:31:52.589Z,90.25
2022-09-18T07:32:47.691Z,90.30
2022-09-18T07:33:42.725Z,90.38
2022-09-18T07:34:37.963Z,90.55
2022-09-18T07:35:32.930Z,90.47
2022-09-18T07:36:27.961Z,90.40
2022-09-18T07:37:23.016Z,90.44
2022-09-18T07:38:18.241Z,90.51
2022-09-18T07:39:13.397Z,90.64
2022-09-18T07:40:08.671Z,90.57
2022-09-18T07:41:03.607Z,90.63
2022-09-18T07:41:58.721Z,90.71
2022-09-18T07:42:53.823Z,90.75
2022-09-18T07:43:48.898Z,90.71
2022-09-18T07:44:43.990Z,90.77
2022-09-18T07:45:39.027Z,90.77
2022-09-18T07:46:34.096Z,90.60
2022-09-18T07:47:29.072Z,90.51
2022-09-18T07:48:24.175Z,90.69
2022-09-18T07:49:19.242Z,90.66
2022-09-18T07:50:14.579Z,90.52
2022-09-18T07:51:09.693Z,90.43
2022-09-18T07:52:04.894Z,90.42
2022-09-18T07:53:00.244Z,90.48
2022-09-18T07:53:55.710Z,90.56
2022-09-18T07:54:50.941Z,90.47
2022-09-18T07:55:46.442Z,90.24
2022-09-18T07:56:46.060Z,90.23
2022-09-18T07:57:38.134Z,90.27
2022-09-18T07:58:32.422Z,90.44
2022-09-18T07:59:27.742Z,90.65
2022-09-18T08:00:23.213Z,90.59
2022-09-18T08:01:18.570Z,90.26
2022-09-18T08:02:14.091Z,90.27
2022-09-18T08:03:09.375Z,90.20
2022-09-18T08:04:05.141Z,90.16
2022-09-18T08:05:00.500Z,90.18
2022-09-18T08:05:55.937Z,90.25
2022-09-18T08:06:51.291Z,90.24
2022-09-18T08:07:46.740Z,90.16
2022-09-18T08:08:41.961Z,90.10
2022-09-18T08:09:37.285Z,89.94
2022-09-18T08:10:32.671Z,89.86
2022-09-18T08:11:28.151Z,89.78
2022-09-18T08:12:23.343Z,89.92
2022-09-18T08:13:18.734Z,89.75
2022-09-18T08:14:14.054Z,89.59
2022-09-18T08:15:09.387Z,89.59
2022-09-18T08:16:05.001Z,89.57
2022-09-18T08:17:00.100Z,89.64
2022-09-18T08:17:55.599Z,89.54
2022-09-18T08:18:50.869Z,89.29
2022-09-18T08:19:47.463Z,89.12
2022-09-18T08:20:42.991Z,89.03
2022-09-18T08:21:38.225Z,88.88
2022-09-18T08:22:33.564Z,88.71
2022-09-18T08:23:29.041Z,88.74
2022-09-18T08:24:24.133Z,88.79
2022-09-18T08:25:19.186Z,88.57
2022-09-18T08:26:17.589Z,88.74
2022-09-18T08:27:10.289Z,88.88
2022-09-18T08:28:04.321Z,88.88
2022-09-18T08:28:59.382Z,89.15
2022-09-18T08:29:54.484Z,89.17
2022-09-18T08:30:49.543Z,89.22
2022-09-18T08:31:44.631Z,88.99
2022-09-18T08:32:39.643Z,88.44
2022-09-18T08:33:34.639Z,88.23
2022-09-18T08:34:29.699Z,88.22
2022-09-18T08:35:24.794Z,88.03
2022-09-18T08:36:19.890Z,87.89
2022-09-18T08:37:15.115Z,87.34
2022-09-18T08:38:10.140Z,87.47
2022-09-18T08:39:05.248Z,86.97
2022-09-18T08:40:00.522Z,86.95
2022-09-18T08:40:55.476Z,85.16
2022-09-18T08:41:50.513Z,83.64
2022-09-18T08:42:45.527Z,82.20
2022-09-18T08:43:40.567Z,81.44
2022-09-18T08:44:35.598Z,81.90
2022-09-18T08:45:30.681Z,81.70
2022-09-18T08:46:26.027Z,81.82
2022-09-18T08:47:20.941Z,81.60
2022-09-18T08:48:16.025Z,82.14
2022-09-18T08:49:14.861Z,81.54
2022-09-18T08:50:09.948Z,81.37
2022-09-18T08:51:04.962Z,81.62
2022-09-18T08:51:59.978Z,81.90
2022-09-18T08:52:55.026Z,81.39
2022-09-18T08:53:50.099Z,81.67
2022-09-18T08:54:45.266Z,81.40
2022-09-18T08:55:40.383Z,81.25
2022-09-18T08:56:36.124Z,81.02
2022-09-18T08:57:31.625Z,80.92
2022-09-18T08:58:27.071Z,81.63
2022-09-18T08:59:22.645Z,81.75
2022-09-18T09:00:18.088Z,81.53
2022-09-18T09:01:13.685Z,81.06
2022-09-18T09:02:09.084Z,80.98
2022-09-18T09:03:04.411Z,80.61
2022-09-18T09:03:59.856Z,79.75
2022-09-18T09:04:55.345Z,80.05
2022-09-18T09:05:50.968Z,81.15
2022-09-18T09:06:46.493Z,80.91
2022-09-18T09:07:41.947Z,80.61
2022-09-18T09:08:37.378Z,81.30
2022-09-18T09:09:36.329Z,81.69
2022-09-18T09:10:31.793Z,81.76
2022-09-18T09:11:27.251Z,81.62
2022-09-18T09:12:22.758Z,81.09
2022-09-18T09:13:18.431Z,81.70
2022-09-18T09:14:13.783Z,81.29
2022-09-18T09:15:09.289Z,81.24
2022-09-18T09:16:04.938Z,80.16
2022-09-18T09:17:00.390Z,80.58
2022-09-18T09:17:55.763Z,80.71
2022-09-18T09:18:51.514Z,80.62
2022-09-18T09:19:46.722Z,79.65
2022-09-18T09:20:42.386Z,80.24
2022-09-18T09:21:37.867Z,80.64
2022-09-18T09:22:33.334Z,80.66
2022-09-18T09:23:28.352Z,80.70
2022-09-18T09:24:23.420Z,79.82
2022-09-18T09:25:18.617Z,79.91
2022-09-18T09:26:13.544Z,79.73
2022-09-18T09:27:08.587Z,79.58
2022-09-18T09:28:03.697Z,79.77
2022-09-18T09:28:58.762Z,80.10
2022-09-18T09:29:53.811Z,79.85
2022-09-18T09:30:48.872Z,79.93
2022-09-18T09:31:44.054Z,80.07
2022-09-18T09:32:40.473Z,80.23
2022-09-18T09:33:35.664Z,79.69
2022-09-18T09:34:30.589Z,79.88
2022-09-18T09:35:25.662Z,79.88
2022-09-18T09:36:21.116Z,78.86
2022-09-18T09:37:16.590Z,79.06
2022-09-18T09:38:12.257Z,79.47
2022-09-18T09:39:07.721Z,79.88
2022-09-18T09:40:03.342Z,79.59
2022-09-18T09:40:58.674Z,78.23
2022-09-18T09:41:54.154Z,78.56
2022-09-18T09:42:49.662Z,79.09
2022-09-18T09:43:45.277Z,79.48
2022-09-18T09:44:40.643Z,79.64
2022-09-18T09:45:36.274Z,79.28
2022-09-18T09:46:31.942Z,79.25
2022-09-18T09:47:27.268Z,78.48
2022-09-18T09:48:22.687Z,78.62
2022-09-18T09:49:17.937Z,78.46
2022-09-18T09:50:12.803Z,77.66
2022-09-18T09:51:07.900Z,77.84
2022-09-18T09:52:08.788Z,77.85
2022-09-18T09:52:59.033Z,77.72
2022-09-18T09:53:53.167Z,77.45
2022-09-18T09:54:48.225Z,77.26
2022-09-18T09:55:45.752Z,76.89
2022-09-18T09:56:40.796Z,77.45
2022-09-18T09:57:35.871Z,76.96
2022-09-18T09:58:30.968Z,77.15
2022-09-18T09:59:26.065Z,77.37
2022-09-18T10:00:21.036Z,77.14
2022-09-18T10:01:16.184Z,77.61
2022-09-18T10:02:11.766Z,77.88
2022-09-18T10:03:07.110Z,78.40
2022-09-18T10:04:02.588Z,78.39
2022-09-18T10:04:58.087Z,77.92
2022-09-18T10:05:54.008Z,77.79
2022-09-18T10:06:49.115Z,77.41
2022-09-18T10:07:44.525Z,77.37
2022-09-18T10:08:41.127Z,77.05
2022-09-18T10:09:36.660Z,76.24
2022-09-18T10:10:32.429Z,75.95
2022-09-18T10:11:27.856Z,75.35
2022-09-18T10:12:23.371Z,75.96
2022-09-18T10:13:18.837Z,76.09
2022-09-18T10:14:15.309Z,76.08
2022-09-18T10:15:09.807Z,76.69
2022-09-18T10:16:05.380Z,76.73
2022-09-18T10:17:00.663Z,76.54
2022-09-18T10:17:56.173Z,75.72
2022-09-18T10:18:51.769Z,75.16
2022-09-18T10:19:47.123Z,75.20
2022-09-18T10:20:42.609Z,76.34
2022-09-18T10:21:37.666Z,76.40
2022-09-18T10:22:32.743Z,75.48
2022-09-18T10:23:30.726Z,74.81
2022-09-18T10:24:23.892Z,75.37
2022-09-18T10:25:17.970Z,75.47
2022-09-18T10:26:13.071Z,75.57
2022-09-18T10:27:08.295Z,75.46
2022-09-18T10:28:03.358Z,75.56
2022-09-18T10:28:58.431Z,74.97
2022-09-18T10:29:53.483Z,74.86
2022-09-18T10:30:48.533Z,74.45
2022-09-18T10:31:43.645Z,74.09
2022-09-18T10:32:38.840Z,74.51
2022-09-18T10:33:33.763Z,73.62
2022-09-18T10:34:28.860Z,74.11
2022-09-18T10:35:23.953Z,73.32
2022-09-18T10:36:19.058Z,72.58
2022-09-18T10:37:14.108Z,72.41
2022-09-18T10:38:09.136Z,72.89
2022-09-18T10:39:04.249Z,73.20
2022-09-18T10:39:59.958Z,72.77
2022-09-18T10:40:55.349Z,72.87
2022-09-18T10:41:50.833Z,72.58
2022-09-18T10:42:46.073Z,72.52
2022-09-18T10:43:41.757Z,72.35
2022-09-18T10:44:37.125Z,72.24
2022-09-18T10:45:32.638Z,72.11
2022-09-18T10:46:28.118Z,71.57
2022-09-18T10:47:23.395Z,72.07
2022-09-18T10:48:18.904Z,72.87
2022-09-18T10:49:14.453Z,72.34
2022-09-18T10:50:10.100Z,72.02
2022-09-18T10:51:05.492Z,71.73
2022-09-18T10:52:01.201Z,71.68
2022-09-18T10:52:56.699Z,71.57
2022-09-18T10:53:52.184Z,71.68
2022-09-18T10:54:47.822Z,70.92
2022-09-18T10:55:43.316Z,71.32
2022-09-18T10:56:38.444Z,71.24
2022-09-18T10:57:33.474Z,70.42
2022-09-18T10:58:28.660Z,71.06
2022-09-18T10:59:23.780Z,71.03
2022-09-18T11:00:18.873Z,71.11
2022-09-18T11:01:14.034Z,70.85
2022-09-18T11:02:09.030Z,71.22
2022-09-18T11:03:04.175Z,70.66
2022-09-18T11:03:59.168Z,70.15
2022-09-18T11:04:54.292Z,70.07
2022-09-18T11:05:49.396Z,69.83
2022-09-18T11:06:44.389Z,70.02
2022-09-18T11:07:39.767Z,69.28
2022-09-18T11:08:35.568Z,69.48
2022-09-18T11:09:31.121Z,69.32
2022-09-18T11:10:30.159Z,68.88
2022-09-18T11:11:25.557Z,68.02
2022-09-18T11:12:21.121Z,67.88
2022-09-18T11:13:16.616Z,67.92
2022-09-18T11:14:11.970Z,68.08
2022-09-18T11:15:07.441Z,67.92
2022-09-18T11:16:03.138Z,68.04
2022-09-18T11:16:58.459Z,67.34
2022-09-18T11:17:53.754Z,67.54
2022-09-18T11:18:49.320Z,67.71
2022-09-18T11:19:44.625Z,66.90
2022-09-18T11:20:40.117Z,67.44
2022-09-18T11:21:35.581Z,67.58
2022-09-18T11:22:31.023Z,67.13
2022-09-18T11:23:26.454Z,67.22
2022-09-18T11:24:21.958Z,66.51
2022-09-18T11:25:17.611Z,66.42
2022-09-18T11:26:12.881Z,66.40
2022-09-18T11:27:07.971Z,66.68
2022-09-18T11:28:03.102Z,67.34
2022-09-18T11:28:58.148Z,66.64
2022-09-18T11:29:53.451Z,65.73
2022-09-18T11:30:48.404Z,65.85
2022-09-18T11:31:43.551Z,66.38
2022-09-18T11:32:38.548Z,67.12
2022-09-18T11:33:35.672Z,68.15
2022-09-18T11:34:30.768Z,67.78
2022-09-18T11:35:25.931Z,67.11
2022-09-18T11:36:20.995Z,66.58
2022-09-18T11:37:16.091Z,66.18
2022-09-18T11:38:11.337Z,66.46
2022-09-18T11:39:06.218Z,67.03
2022-09-18T11:40:01.362Z,66.68
2022-09-18T11:40:56.603Z,66.89
2022-09-18T11:41:52.227Z,67.20
2022-09-18T11:42:47.561Z,66.50
2022-09-18T11:43:43.126Z,66.07
2022-09-18T11:44:38.656Z,66.26
2022-09-18T11:45:34.187Z,66.44
2022-09-18T11:46:29.806Z,66.15
2022-09-18T11:47:25.328Z,66.46
2022-09-18T11:48:20.712Z,66.11
2022-09-18T11:49:16.139Z,66.07
2022-09-18T11:50:11.600Z,66.52
2022-09-18T11:51:07.080Z,66.93
2022-09-18T11:52:02.464Z,67.13